sensor_id;sensor_type;location;lat;lon;timestamp;temperature;humidity
67027;DHT22;53933;52.142;11.738;2022-11-20T00:00:18;19.70;82.90
67027;DHT22;53933;52.142;11.738;2022-11-20T00:02:45;19.70;82.80
67027;DHT22;53933;52.142;11.738;2022-11-20T00:05:11;19.70;82.80
67027;DHT22;53933;52.142;11.738;2022-11-20T00:07:40;19.70;82.90
67027;DHT22;53933;52.142;11.738;2022-11-20T00:10:07;19.80;82.60
67027;DHT22;53933;52.142;11.738;2022-11-20T00:12:34;19.80;82.80
67027;DHT22;53933;52.142;11.738;2022-11-20T00:15:01;19.80;82.90
67027;DHT22;53933;52.142;11.738;2022-11-20T00:17:27;19.80;83.00
67027;DHT22;53933;52.142;11.738;2022-11-20T00:19:54;19.80;82.90
67027;DHT22;53933;52.142;11.738;2022-11-20T00:22:21;19.80;82.80
67027;DHT22;53933;52.142;11.738;2022-11-20T00:24:49;19.80;82.80
67027;DHT22;53933;52.142;11.738;2022-11-20T00:27:16;19.80;82.80
67027;DHT22;53933;52.142;11.738;2022-11-20T00:29:42;19.80;82.80
67027;DHT22;53933;52.142;11.738;2022-11-20T00:32:09;19.80;82.70
67027;DHT22;53933;52.142;11.738;2022-11-20T00:34:36;19.80;82.80
67027;DHT22;53933;52.142;11.738;2022-11-20T00:37:02;19.70;82.90
67027;DHT22;53933;52.142;11.738;2022-11-20T00:39:29;19.70;82.80
67027;DHT22;53933;52.142;11.738;2022-11-20T00:41:57;19.70;82.80
67027;DHT22;53933;52.142;11.738;2022-11-20T00:44:24;19.70;82.90
67027;DHT22;53933;52.142;11.738;2022-11-20T00:46:50;19.70;83.00
67027;DHT22;53933;52.142;11.738;2022-11-20T00:49:17;19.60;82.90
67027;DHT22;53933;52.142;11.738;2022-11-20T00:51:44;19.60;83.00
67027;DHT22;53933;52.142;11.738;2022-11-20T00:54:10;19.60;83.00
67027;DHT22;53933;52.142;11.738;2022-11-20T00:56:37;19.60;83.10
67027;DHT22;53933;52.142;11.738;2022-11-20T00:59:05;19.60;83.20
67027;DHT22;53933;52.142;11.738;2022-11-20T01:01:32;19.60;83.10
67027;DHT22;53933;52.142;11.738;2022-11-20T01:03:59;19.60;83.30
67027;DHT22;53933;52.142;11.738;2022-11-20T01:06:27;19.60;83.30
67027;DHT22;53933;52.142;11.738;2022-11-20T01:08:56;19.60;83.30
67027;DHT22;53933;52.142;11.738;2022-11-20T01:11:25;19.60;83.30
67027;DHT22;53933;52.142;11.738;2022-11-20T01:13:53;19.60;83.30
67027;DHT22;53933;52.142;11.738;2022-11-20T01:16:23;19.60;83.40
67027;DHT22;53933;52.142;11.738;2022-11-20T01:18:52;19.60;83.30
67027;DHT22;53933;52.142;11.738;2022-11-20T01:21:20;19.50;83.40
67027;DHT22;53933;52.142;11.738;2022-11-20T01:23:48;19.50;83.40
67027;DHT22;53933;52.142;11.738;2022-11-20T01:26:17;19.50;83.50
67027;DHT22;53933;52.142;11.738;2022-11-20T01:28:44;19.50;83.60
67027;DHT22;53933;52.142;11.738;2022-11-20T01:31:12;19.50;83.90
67027;DHT22;53933;52.142;11.738;2022-11-20T01:33:41;19.60;83.80
67027;DHT22;53933;52.142;11.738;2022-11-20T01:36:09;19.50;83.60
67027;DHT22;53933;52.142;11.738;2022-11-20T01:38:36;19.50;83.60
67027;DHT22;53933;52.142;11.738;2022-11-20T01:41:03;19.50;83.50
67027;DHT22;53933;52.142;11.738;2022-11-20T01:43:31;19.50;83.70
67027;DHT22;53933;52.142;11.738;2022-11-20T01:46:13;19.50;83.60
67027;DHT22;53933;52.142;11.738;2022-11-20T01:48:49;19.50;83.60
67027;DHT22;53933;52.142;11.738;2022-11-20T01:51:22;19.50;83.60
67027;DHT22;53933;52.142;11.738;2022-11-20T01:53:50;19.50;83.70
67027;DHT22;53933;52.142;11.738;2022-11-20T01:56:18;19.50;83.80
67027;DHT22;53933;52.142;11.738;2022-11-20T01:58:50;19.50;83.80
67027;DHT22;53933;52.142;11.738;2022-11-20T02:01:17;19.50;83.80
67027;DHT22;53933;52.142;11.738;2022-11-20T02:03:46;19.50;83.70
67027;DHT22;53933;52.142;11.738;2022-11-20T02:06:18;19.50;83.70
67027;DHT22;53933;52.142;11.738;2022-11-20T02:08:45;19.50;83.70
67027;DHT22;53933;52.142;11.738;2022-11-20T02:11:12;19.50;83.80
67027;DHT22;53933;52.142;11.738;2022-11-20T02:13:39;19.50;83.90
67027;DHT22;53933;52.142;11.738;2022-11-20T02:16:14;19.50;83.90
67027;DHT22;53933;52.142;11.738;2022-11-20T02:18:42;19.50;83.90
67027;DHT22;53933;52.142;11.738;2022-11-20T02:21:15;19.50;83.90
67027;DHT22;53933;52.142;11.738;2022-11-20T02:23:57;19.50;84.00
67027;DHT22;53933;52.142;11.738;2022-11-20T02:26:26;19.50;84.20
67027;DHT22;53933;52.142;11.738;2022-11-20T02:28:54;19.50;84.30
67027;DHT22;53933;52.142;11.738;2022-11-20T02:31:21;19.50;84.20
67027;DHT22;53933;52.142;11.738;2022-11-20T02:33:53;19.50;84.50
67027;DHT22;53933;52.142;11.738;2022-11-20T02:36:20;19.50;84.50
67027;DHT22;53933;52.142;11.738;2022-11-20T02:38:46;19.50;84.60
67027;DHT22;53933;52.142;11.738;2022-11-20T02:41:15;19.50;84.70
67027;DHT22;53933;52.142;11.738;2022-11-20T02:43:42;19.50;84.80
67027;DHT22;53933;52.142;11.738;2022-11-20T02:46:09;19.50;85.30
67027;DHT22;53933;52.142;11.738;2022-11-20T02:48:36;19.50;85.10
67027;DHT22;53933;52.142;11.738;2022-11-20T02:51:03;19.50;85.30
67027;DHT22;53933;52.142;11.738;2022-11-20T02:53:30;19.50;85.30
67027;DHT22;53933;52.142;11.738;2022-11-20T02:55:56;19.50;85.40
67027;DHT22;53933;52.142;11.738;2022-11-20T02:58:24;19.50;85.70
67027;DHT22;53933;52.142;11.738;2022-11-20T03:00:52;19.50;85.30
67027;DHT22;53933;52.142;11.738;2022-11-20T03:03:19;19.50;85.50
67027;DHT22;53933;52.142;11.738;2022-11-20T03:05:45;19.50;85.50
67027;DHT22;53933;52.142;11.738;2022-11-20T03:08:12;19.40;85.70
67027;DHT22;53933;52.142;11.738;2022-11-20T03:10:39;19.40;85.80
67027;DHT22;53933;52.142;11.738;2022-11-20T03:13:05;19.40;85.90
67027;DHT22;53933;52.142;11.738;2022-11-20T03:15:35;19.50;85.90
67027;DHT22;53933;52.142;11.738;2022-11-20T03:18:02;19.40;85.80
67027;DHT22;53933;52.142;11.738;2022-11-20T03:20:28;19.50;85.60
67027;DHT22;53933;52.142;11.738;2022-11-20T03:22:55;19.40;85.70
67027;DHT22;53933;52.142;11.738;2022-11-20T03:25:22;19.40;86.00
67027;DHT22;53933;52.142;11.738;2022-11-20T03:27:49;19.50;86.10
67027;DHT22;53933;52.142;11.738;2022-11-20T03:30:15;19.40;86.10
67027;DHT22;53933;52.142;11.738;2022-11-20T03:32:43;19.40;86.10
67027;DHT22;53933;52.142;11.738;2022-11-20T03:35:10;19.40;86.00
67027;DHT22;53933;52.142;11.738;2022-11-20T03:37:37;19.40;86.00
67027;DHT22;53933;52.142;11.738;2022-11-20T03:40:05;19.40;86.10
67027;DHT22;53933;52.142;11.738;2022-11-20T03:42:32;19.40;86.00
67027;DHT22;53933;52.142;11.738;2022-11-20T03:45:11;19.40;86.10
67027;DHT22;53933;52.142;11.738;2022-11-20T03:47:38;19.40;86.00
67027;DHT22;53933;52.142;11.738;2022-11-20T03:50:07;19.40;86.40
67027;DHT22;53933;52.142;11.738;2022-11-20T03:52:34;19.40;86.40
67027;DHT22;53933;52.142;11.738;2022-11-20T03:55:00;19.40;86.30
67027;DHT22;53933;52.142;11.738;2022-11-20T03:57:27;19.40;86.20
67027;DHT22;53933;52.142;11.738;2022-11-20T03:59:54;19.40;86.20
67027;DHT22;53933;52.142;11.738;2022-11-20T04:02:21;19.40;86.20
67027;DHT22;53933;52.142;11.738;2022-11-20T04:04:47;19.40;86.10
67027;DHT22;53933;52.142;11.738;2022-11-20T04:07:16;19.40;86.30
67027;DHT22;53933;52.142;11.738;2022-11-20T04:09:42;19.40;86.20
67027;DHT22;53933;52.142;11.738;2022-11-20T04:12:09;19.40;86.20
67027;DHT22;53933;52.142;11.738;2022-11-20T04:14:36;19.40;86.30
67027;DHT22;53933;52.142;11.738;2022-11-20T04:17:03;19.40;86.10
67027;DHT22;53933;52.142;11.738;2022-11-20T04:19:30;19.40;86.30
67027;DHT22;53933;52.142;11.738;2022-11-20T04:21:56;19.40;86.20
67027;DHT22;53933;52.142;11.738;2022-11-20T04:24:24;19.40;86.20
67027;DHT22;53933;52.142;11.738;2022-11-20T04:26:52;19.40;86.20
67027;DHT22;53933;52.142;11.738;2022-11-20T04:29:19;19.40;86.10
67027;DHT22;53933;52.142;11.738;2022-11-20T04:31:45;19.40;86.10
67027;DHT22;53933;52.142;11.738;2022-11-20T04:34:12;19.30;86.00
67027;DHT22;53933;52.142;11.738;2022-11-20T04:36:39;19.30;86.10
67027;DHT22;53933;52.142;11.738;2022-11-20T04:39:06;19.30;86.00
67027;DHT22;53933;52.142;11.738;2022-11-20T04:41:35;19.30;86.00
67027;DHT22;53933;52.142;11.738;2022-11-20T04:44:05;19.30;86.00
67027;DHT22;53933;52.142;11.738;2022-11-20T04:46:34;19.30;86.00
67027;DHT22;53933;52.142;11.738;2022-11-20T04:49:01;19.30;86.20
67027;DHT22;53933;52.142;11.738;2022-11-20T04:51:28;19.30;86.10
67027;DHT22;53933;52.142;11.738;2022-11-20T04:53:55;19.30;86.20
67027;DHT22;53933;52.142;11.738;2022-11-20T04:56:22;19.30;86.20
67027;DHT22;53933;52.142;11.738;2022-11-20T04:58:50;19.30;86.30
67027;DHT22;53933;52.142;11.738;2022-11-20T05:01:19;19.30;86.40
67027;DHT22;53933;52.142;11.738;2022-11-20T05:03:46;19.30;86.90
67027;DHT22;53933;52.142;11.738;2022-11-20T05:06:15;19.30;86.80
67027;DHT22;53933;52.142;11.738;2022-11-20T05:08:42;19.30;86.80
67027;DHT22;53933;52.142;11.738;2022-11-20T05:11:10;19.20;86.70
67027;DHT22;53933;52.142;11.738;2022-11-20T05:13:38;19.20;86.90
67027;DHT22;53933;52.142;11.738;2022-11-20T05:16:09;19.20;86.90
67027;DHT22;53933;52.142;11.738;2022-11-20T05:18:37;19.30;87.00
67027;DHT22;53933;52.142;11.738;2022-11-20T05:21:04;19.20;87.10
67027;DHT22;53933;52.142;11.738;2022-11-20T05:23:32;19.20;87.10
67027;DHT22;53933;52.142;11.738;2022-11-20T05:25:59;19.20;87.30
67027;DHT22;53933;52.142;11.738;2022-11-20T05:28:28;19.20;87.40
67027;DHT22;53933;52.142;11.738;2022-11-20T05:30:55;19.20;87.60
67027;DHT22;53933;52.142;11.738;2022-11-20T05:33:23;19.20;87.70
67027;DHT22;53933;52.142;11.738;2022-11-20T05:35:49;19.20;87.80
67027;DHT22;53933;52.142;11.738;2022-11-20T05:38:16;19.20;87.60
67027;DHT22;53933;52.142;11.738;2022-11-20T05:40:43;19.20;87.70
67027;DHT22;53933;52.142;11.738;2022-11-20T05:43:09;19.10;87.60
67027;DHT22;53933;52.142;11.738;2022-11-20T05:45:36;19.10;87.60
67027;DHT22;53933;52.142;11.738;2022-11-20T05:48:03;19.10;87.60
67027;DHT22;53933;52.142;11.738;2022-11-20T05:50:31;19.10;87.60
67027;DHT22;53933;52.142;11.738;2022-11-20T05:52:58;19.10;87.60
67027;DHT22;53933;52.142;11.738;2022-11-20T05:55:25;19.10;87.60
67027;DHT22;53933;52.142;11.738;2022-11-20T05:57:52;19.10;87.70
67027;DHT22;53933;52.142;11.738;2022-11-20T06:00:20;19.10;87.90
67027;DHT22;53933;52.142;11.738;2022-11-20T06:02:46;19.10;87.80
67027;DHT22;53933;52.142;11.738;2022-11-20T06:05:13;19.10;87.80
67027;DHT22;53933;52.142;11.738;2022-11-20T06:07:41;19.10;87.70
67027;DHT22;53933;52.142;11.738;2022-11-20T06:10:08;19.10;87.80
67027;DHT22;53933;52.142;11.738;2022-11-20T06:12:35;19.10;87.70
67027;DHT22;53933;52.142;11.738;2022-11-20T06:15:02;19.10;87.80
67027;DHT22;53933;52.142;11.738;2022-11-20T06:17:29;19.10;87.70
67027;DHT22;53933;52.142;11.738;2022-11-20T06:19:56;19.10;87.80
67027;DHT22;53933;52.142;11.738;2022-11-20T06:22:22;19.10;87.90
67027;DHT22;53933;52.142;11.738;2022-11-20T06:24:50;19.10;87.90
67027;DHT22;53933;52.142;11.738;2022-11-20T06:27:17;19.10;87.80
67027;DHT22;53933;52.142;11.738;2022-11-20T06:29:44;19.10;87.70
67027;DHT22;53933;52.142;11.738;2022-11-20T06:32:10;19.10;87.60
67027;DHT22;53933;52.142;11.738;2022-11-20T06:34:37;19.10;87.60
67027;DHT22;53933;52.142;11.738;2022-11-20T06:37:04;19.10;87.60
67027;DHT22;53933;52.142;11.738;2022-11-20T06:39:30;19.10;87.60
67027;DHT22;53933;52.142;11.738;2022-11-20T06:41:58;19.10;87.80
67027;DHT22;53933;52.142;11.738;2022-11-20T06:44:25;19.10;87.70
67027;DHT22;53933;52.142;11.738;2022-11-20T06:46:52;19.10;87.70
67027;DHT22;53933;52.142;11.738;2022-11-20T06:49:18;19.10;87.60
67027;DHT22;53933;52.142;11.738;2022-11-20T06:51:45;19.10;87.60
67027;DHT22;53933;52.142;11.738;2022-11-20T06:54:12;19.10;87.40
67027;DHT22;53933;52.142;11.738;2022-11-20T06:56:38;19.10;87.60
67027;DHT22;53933;52.142;11.738;2022-11-20T06:59:07;19.10;87.50
67027;DHT22;53933;52.142;11.738;2022-11-20T07:01:34;19.10;87.20
67027;DHT22;53933;52.142;11.738;2022-11-20T07:04:01;19.10;87.20
67027;DHT22;53933;52.142;11.738;2022-11-20T07:06:28;19.10;87.00
67027;DHT22;53933;52.142;11.738;2022-11-20T07:08:55;19.10;87.20
67027;DHT22;53933;52.142;11.738;2022-11-20T07:11:21;19.10;87.20
67027;DHT22;53933;52.142;11.738;2022-11-20T07:13:48;19.10;87.10
67027;DHT22;53933;52.142;11.738;2022-11-20T07:16:16;19.10;87.00
67027;DHT22;53933;52.142;11.738;2022-11-20T07:18:43;19.10;87.20
67027;DHT22;53933;52.142;11.738;2022-11-20T07:21:10;19.10;86.90
67027;DHT22;53933;52.142;11.738;2022-11-20T07:23:37;19.10;86.90
67027;DHT22;53933;52.142;11.738;2022-11-20T07:26:04;19.10;86.60
67027;DHT22;53933;52.142;11.738;2022-11-20T07:28:32;19.10;87.40
67027;DHT22;53933;52.142;11.738;2022-11-20T07:30:59;19.10;87.00
67027;DHT22;53933;52.142;11.738;2022-11-20T07:33:27;19.00;87.00
67027;DHT22;53933;52.142;11.738;2022-11-20T07:35:53;19.10;87.00
67027;DHT22;53933;52.142;11.738;2022-11-20T07:38:20;19.10;86.80
67027;DHT22;53933;52.142;11.738;2022-11-20T07:40:47;19.10;86.80
67027;DHT22;53933;52.142;11.738;2022-11-20T07:43:14;19.10;86.80
67027;DHT22;53933;52.142;11.738;2022-11-20T07:45:41;19.10;86.60
67027;DHT22;53933;52.142;11.738;2022-11-20T07:48:07;19.10;86.60
67027;DHT22;53933;52.142;11.738;2022-11-20T07:50:35;19.10;86.50
67027;DHT22;53933;52.142;11.738;2022-11-20T07:53:03;19.10;86.50
67027;DHT22;53933;52.142;11.738;2022-11-20T07:55:30;19.10;86.30
67027;DHT22;53933;52.142;11.738;2022-11-20T07:57:57;19.20;86.60
67027;DHT22;53933;52.142;11.738;2022-11-20T08:00:24;19.20;86.40
67027;DHT22;53933;52.142;11.738;2022-11-20T08:02:51;19.20;86.40
67027;DHT22;53933;52.142;11.738;2022-11-20T08:05:18;19.20;86.10
67027;DHT22;53933;52.142;11.738;2022-11-20T08:07:46;19.20;86.20
67027;DHT22;53933;52.142;11.738;2022-11-20T08:10:14;19.20;86.10
67027;DHT22;53933;52.142;11.738;2022-11-20T08:12:45;19.20;86.00
67027;DHT22;53933;52.142;11.738;2022-11-20T08:15:29;19.30;86.70
67027;DHT22;53933;52.142;11.738;2022-11-20T08:18:00;19.30;85.80
67027;DHT22;53933;52.142;11.738;2022-11-20T08:20:27;19.30;85.50
67027;DHT22;53933;52.142;11.738;2022-11-20T08:22:59;19.30;85.30
67027;DHT22;53933;52.142;11.738;2022-11-20T08:25:26;19.30;85.20
67027;DHT22;53933;52.142;11.738;2022-11-20T08:27:53;19.20;85.40
67027;DHT22;53933;52.142;11.738;2022-11-20T08:30:19;19.20;85.40
67027;DHT22;53933;52.142;11.738;2022-11-20T08:32:46;19.20;85.40
67027;DHT22;53933;52.142;11.738;2022-11-20T08:35:13;19.20;86.00
67027;DHT22;53933;52.142;11.738;2022-11-20T08:37:40;19.20;86.00
67027;DHT22;53933;52.142;11.738;2022-11-20T08:40:11;19.20;86.40
67027;DHT22;53933;52.142;11.738;2022-11-20T08:42:45;19.20;87.10
67027;DHT22;53933;52.142;11.738;2022-11-20T08:45:11;19.30;87.00
67027;DHT22;53933;52.142;11.738;2022-11-20T08:47:38;19.30;87.10
67027;DHT22;53933;52.142;11.738;2022-11-20T08:50:06;19.30;87.10
67027;DHT22;53933;52.142;11.738;2022-11-20T08:52:33;19.30;87.00
67027;DHT22;53933;52.142;11.738;2022-11-20T08:55:00;19.30;87.10
67027;DHT22;53933;52.142;11.738;2022-11-20T08:57:28;19.30;87.20
67027;DHT22;53933;52.142;11.738;2022-11-20T08:59:54;19.30;87.00
67027;DHT22;53933;52.142;11.738;2022-11-20T09:02:21;19.30;86.90
67027;DHT22;53933;52.142;11.738;2022-11-20T09:04:48;19.30;87.30
67027;DHT22;53933;52.142;11.738;2022-11-20T09:07:14;19.30;86.90
67027;DHT22;53933;52.142;11.738;2022-11-20T09:09:41;19.30;87.00
67027;DHT22;53933;52.142;11.738;2022-11-20T09:12:08;19.30;86.80
67027;DHT22;53933;52.142;11.738;2022-11-20T09:14:36;19.30;86.40
67027;DHT22;53933;52.142;11.738;2022-11-20T09:17:02;19.30;86.50
67027;DHT22;53933;52.142;11.738;2022-11-20T09:19:29;19.30;86.80
67027;DHT22;53933;52.142;11.738;2022-11-20T09:21:56;19.30;86.90
67027;DHT22;53933;52.142;11.738;2022-11-20T09:24:22;19.30;86.80
67027;DHT22;53933;52.142;11.738;2022-11-20T09:26:49;19.30;86.80
67027;DHT22;53933;52.142;11.738;2022-11-20T09:29:16;19.30;87.00
67027;DHT22;53933;52.142;11.738;2022-11-20T09:31:44;19.20;87.10
67027;DHT22;53933;52.142;11.738;2022-11-20T09:34:11;19.30;86.80
67027;DHT22;53933;52.142;11.738;2022-11-20T09:36:37;19.30;86.70
67027;DHT22;53933;52.142;11.738;2022-11-20T09:39:04;19.30;86.60
67027;DHT22;53933;52.142;11.738;2022-11-20T09:41:52;19.30;86.60
67027;DHT22;53933;52.142;11.738;2022-11-20T09:44:34;19.30;86.80
67027;DHT22;53933;52.142;11.738;2022-11-20T09:47:08;19.30;86.50
67027;DHT22;53933;52.142;11.738;2022-11-20T09:49:58;19.30;86.30
67027;DHT22;53933;52.142;11.738;2022-11-20T09:52:35;19.30;86.40
67027;DHT22;53933;52.142;11.738;2022-11-20T09:55:08;19.30;86.20
67027;DHT22;53933;52.142;11.738;2022-11-20T09:57:38;19.30;85.80
67027;DHT22;53933;52.142;11.738;2022-11-20T10:00:09;19.30;85.80
67027;DHT22;53933;52.142;11.738;2022-11-20T10:02:42;19.30;85.70
67027;DHT22;53933;52.142;11.738;2022-11-20T10:05:17;19.30;85.30
67027;DHT22;53933;52.142;11.738;2022-11-20T10:07:48;19.20;85.00
67027;DHT22;53933;52.142;11.738;2022-11-20T10:10:29;19.20;84.70
67027;DHT22;53933;52.142;11.738;2022-11-20T10:13:09;19.20;84.40
67027;DHT22;53933;52.142;11.738;2022-11-20T10:15:48;19.20;84.30
67027;DHT22;53933;52.142;11.738;2022-11-20T10:18:29;19.20;84.40
67027;DHT22;53933;52.142;11.738;2022-11-20T10:21:07;19.20;84.30
67027;DHT22;53933;52.142;11.738;2022-11-20T10:26:43;19.20;84.20
67027;DHT22;53933;52.142;11.738;2022-11-20T10:29:13;19.30;83.90
67027;DHT22;53933;52.142;11.738;2022-11-20T10:31:42;19.30;83.80
67027;DHT22;53933;52.142;11.738;2022-11-20T10:34:19;19.30;83.70
67027;DHT22;53933;52.142;11.738;2022-11-20T10:36:52;19.40;83.60
67027;DHT22;53933;52.142;11.738;2022-11-20T10:39:25;19.40;83.40
67027;DHT22;53933;52.142;11.738;2022-11-20T10:41:53;19.50;83.20
67027;DHT22;53933;52.142;11.738;2022-11-20T10:44:21;19.50;83.00
67027;DHT22;53933;52.142;11.738;2022-11-20T10:47:03;19.50;82.70
67027;DHT22;53933;52.142;11.738;2022-11-20T10:49:32;19.60;82.30
67027;DHT22;53933;52.142;11.738;2022-11-20T10:52:07;19.70;82.00
67027;DHT22;53933;52.142;11.738;2022-11-20T10:54:42;19.70;81.70
67027;DHT22;53933;52.142;11.738;2022-11-20T10:57:20;19.80;81.50
67027;DHT22;53933;52.142;11.738;2022-11-20T10:59:58;19.80;81.20
67027;DHT22;53933;52.142;11.738;2022-11-20T11:02:32;19.90;80.90
67027;DHT22;53933;52.142;11.738;2022-11-20T11:07:50;20.00;80.60
67027;DHT22;53933;52.142;11.738;2022-11-20T11:10:24;20.00;80.60
67027;DHT22;53933;52.142;11.738;2022-11-20T11:12:52;19.90;80.50
67027;DHT22;53933;52.142;11.738;2022-11-20T11:15:27;19.90;80.50
67027;DHT22;53933;52.142;11.738;2022-11-20T11:17:54;20.00;80.60
67027;DHT22;53933;52.142;11.738;2022-11-20T11:20:23;19.90;80.50
67027;DHT22;53933;52.142;11.738;2022-11-20T11:22:51;20.00;80.60
67027;DHT22;53933;52.142;11.738;2022-11-20T11:25:25;20.00;80.60
67027;DHT22;53933;52.142;11.738;2022-11-20T11:27:53;20.00;80.50
67027;DHT22;53933;52.142;11.738;2022-11-20T11:30:22;20.00;80.30
67027;DHT22;53933;52.142;11.738;2022-11-20T11:32:49;20.10;80.30
67027;DHT22;53933;52.142;11.738;2022-11-20T11:35:23;20.10;80.50
67027;DHT22;53933;52.142;11.738;2022-11-20T11:37:51;20.20;80.40
67027;DHT22;53933;52.142;11.738;2022-11-20T11:40:21;20.30;79.90
67027;DHT22;53933;52.142;11.738;2022-11-20T11:42:53;20.40;79.30
67027;DHT22;53933;52.142;11.738;2022-11-20T11:45:21;20.60;78.90
67027;DHT22;53933;52.142;11.738;2022-11-20T11:47:48;20.60;78.50
67027;DHT22;53933;52.142;11.738;2022-11-20T11:50:17;20.60;78.40
67027;DHT22;53933;52.142;11.738;2022-11-20T11:52:56;20.60;78.40
67027;DHT22;53933;52.142;11.738;2022-11-20T11:55:31;20.60;78.50
67027;DHT22;53933;52.142;11.738;2022-11-20T11:58:08;20.60;78.50
67027;DHT22;53933;52.142;11.738;2022-11-20T12:00:37;20.60;78.40
67027;DHT22;53933;52.142;11.738;2022-11-20T12:03:12;20.60;78.40
67027;DHT22;53933;52.142;11.738;2022-11-20T12:05:43;20.70;78.40
67027;DHT22;53933;52.142;11.738;2022-11-20T12:08:17;20.60;78.40
67027;DHT22;53933;52.142;11.738;2022-11-20T12:10:50;20.70;78.20
67027;DHT22;53933;52.142;11.738;2022-11-20T12:13:25;20.90;77.70
67027;DHT22;53933;52.142;11.738;2022-11-20T12:15:53;20.90;78.00
67027;DHT22;53933;52.142;11.738;2022-11-20T12:18:21;20.80;77.70
67027;DHT22;53933;52.142;11.738;2022-11-20T12:20:56;20.80;77.90
67027;DHT22;53933;52.142;11.738;2022-11-20T12:23:35;20.80;78.10
67027;DHT22;53933;52.142;11.738;2022-11-20T12:26:14;20.70;78.20
67027;DHT22;53933;52.142;11.738;2022-11-20T12:28:52;20.70;78.10
67027;DHT22;53933;52.142;11.738;2022-11-20T12:31:41;20.80;77.90
67027;DHT22;53933;52.142;11.738;2022-11-20T12:34:20;20.90;77.50
67027;DHT22;53933;52.142;11.738;2022-11-20T12:36:52;21.00;77.70
67027;DHT22;53933;52.142;11.738;2022-11-20T12:39:31;21.10;77.30
67027;DHT22;53933;52.142;11.738;2022-11-20T12:42:28;21.10;77.40
67027;DHT22;53933;52.142;11.738;2022-11-20T12:45:40;21.20;77.60
67027;DHT22;53933;52.142;11.738;2022-11-20T12:48:19;21.10;77.60
67027;DHT22;53933;52.142;11.738;2022-11-20T12:50:54;21.00;78.40
67027;DHT22;53933;52.142;11.738;2022-11-20T12:53:30;21.10;78.20
67027;DHT22;53933;52.142;11.738;2022-11-20T12:56:06;21.00;78.20
67027;DHT22;53933;52.142;11.738;2022-11-20T12:58:46;21.00;78.30
67027;DHT22;53933;52.142;11.738;2022-11-20T13:01:23;20.90;78.40
67027;DHT22;53933;52.142;11.738;2022-11-20T13:04:12;20.90;78.50
67027;DHT22;53933;52.142;11.738;2022-11-20T13:06:44;20.90;78.60
67027;DHT22;53933;52.142;11.738;2022-11-20T13:09:13;20.90;78.60
67027;DHT22;53933;52.142;11.738;2022-11-20T13:11:45;20.90;78.60
67027;DHT22;53933;52.142;11.738;2022-11-20T13:14:24;20.80;78.60
67027;DHT22;53933;52.142;11.738;2022-11-20T13:16:57;20.90;78.60
67027;DHT22;53933;52.142;11.738;2022-11-20T13:19:25;21.00;78.30
67027;DHT22;53933;52.142;11.738;2022-11-20T13:21:52;21.00;78.10
67027;DHT22;53933;52.142;11.738;2022-11-20T13:24:25;21.20;77.80
67027;DHT22;53933;52.142;11.738;2022-11-20T13:27:19;21.30;77.50
67027;DHT22;53933;52.142;11.738;2022-11-20T13:29:48;21.30;77.50
67027;DHT22;53933;52.142;11.738;2022-11-20T13:32:26;21.40;77.10
67027;DHT22;53933;52.142;11.738;2022-11-20T13:34:59;21.50;77.00
67027;DHT22;53933;52.142;11.738;2022-11-20T13:37:32;21.50;76.40
67027;DHT22;53933;52.142;11.738;2022-11-20T13:40:13;21.70;76.20
67027;DHT22;53933;52.142;11.738;2022-11-20T13:42:44;21.70;76.10
67027;DHT22;53933;52.142;11.738;2022-11-20T13:45:21;21.70;75.90
67027;DHT22;53933;52.142;11.738;2022-11-20T13:47:49;21.70;75.70
67027;DHT22;53933;52.142;11.738;2022-11-20T13:50:16;21.60;76.60
67027;DHT22;53933;52.142;11.738;2022-11-20T13:52:52;21.70;76.90
67027;DHT22;53933;52.142;11.738;2022-11-20T13:55:28;21.80;76.80
67027;DHT22;53933;52.142;11.738;2022-11-20T13:58:10;21.90;76.00
67027;DHT22;53933;52.142;11.738;2022-11-20T14:00:44;22.10;75.70
67027;DHT22;53933;52.142;11.738;2022-11-20T14:03:18;22.10;75.30
67027;DHT22;53933;52.142;11.738;2022-11-20T14:05:49;21.90;75.40
67027;DHT22;53933;52.142;11.738;2022-11-20T14:08:25;21.80;75.80
67027;DHT22;53933;52.142;11.738;2022-11-20T14:11:03;21.70;76.20
67027;DHT22;53933;52.142;11.738;2022-11-20T14:13:31;21.50;76.70
67027;DHT22;53933;52.142;11.738;2022-11-20T14:15:59;21.40;77.30
67027;DHT22;53933;52.142;11.738;2022-11-20T14:18:26;21.30;77.30
67027;DHT22;53933;52.142;11.738;2022-11-20T14:20:54;21.20;77.60
67027;DHT22;53933;52.142;11.738;2022-11-20T14:23:25;21.10;77.70
67027;DHT22;53933;52.142;11.738;2022-11-20T14:25:52;21.00;78.00
67027;DHT22;53933;52.142;11.738;2022-11-20T14:28:25;20.90;78.20
67027;DHT22;53933;52.142;11.738;2022-11-20T14:30:53;20.90;78.40
67027;DHT22;53933;52.142;11.738;2022-11-20T14:33:21;20.80;78.50
67027;DHT22;53933;52.142;11.738;2022-11-20T14:35:52;20.80;78.40
67027;DHT22;53933;52.142;11.738;2022-11-20T14:38:22;20.80;78.40
67027;DHT22;53933;52.142;11.738;2022-11-20T14:40:50;20.80;78.50
67027;DHT22;53933;52.142;11.738;2022-11-20T14:43:22;20.70;78.50
67027;DHT22;53933;52.142;11.738;2022-11-20T14:45:56;20.60;78.70
67027;DHT22;53933;52.142;11.738;2022-11-20T14:48:28;20.60;78.90
67027;DHT22;53933;52.142;11.738;2022-11-20T14:50:56;20.50;79.10
67027;DHT22;53933;52.142;11.738;2022-11-20T14:53:23;20.50;79.20
67027;DHT22;53933;52.142;11.738;2022-11-20T14:55:56;20.40;79.20
67027;DHT22;53933;52.142;11.738;2022-11-20T14:58:25;20.40;79.30
67027;DHT22;53933;52.142;11.738;2022-11-20T15:00:58;20.40;79.40
67027;DHT22;53933;52.142;11.738;2022-11-20T15:03:31;20.30;79.40
67027;DHT22;53933;52.142;11.738;2022-11-20T15:05:59;20.30;79.50
67027;DHT22;53933;52.142;11.738;2022-11-20T15:08:26;20.30;79.60
67027;DHT22;53933;52.142;11.738;2022-11-20T15:10:53;20.20;79.60
67027;DHT22;53933;52.142;11.738;2022-11-20T15:13:26;20.20;79.60
67027;DHT22;53933;52.142;11.738;2022-11-20T15:15:55;20.20;79.70
67027;DHT22;53933;52.142;11.738;2022-11-20T15:18:24;20.20;79.80
67027;DHT22;53933;52.142;11.738;2022-11-20T15:20:54;20.20;79.90
67027;DHT22;53933;52.142;11.738;2022-11-20T15:23:22;20.10;79.90
67027;DHT22;53933;52.142;11.738;2022-11-20T15:25:49;20.10;79.90
67027;DHT22;53933;52.142;11.738;2022-11-20T15:28:18;20.10;80.00
67027;DHT22;53933;52.142;11.738;2022-11-20T15:30:45;20.10;80.10
67027;DHT22;53933;52.142;11.738;2022-11-20T15:33:14;20.10;80.10
67027;DHT22;53933;52.142;11.738;2022-11-20T15:35:40;20.00;80.10